sensor_id;sensor_type;location;lat;lon;timestamp;temperature;humidity
563;DHT22;266;49.514;8.294;2023-11-21T00:00:16;9.50;99.90
563;DHT22;266;49.514;8.294;2023-11-21T00:02:46;9.40;99.90
563;DHT22;266;49.514;8.294;2023-11-21T00:05:14;9.50;99.90
563;DHT22;266;49.514;8.294;2023-11-21T00:07:43;9.40;99.90
563;DHT22;266;49.514;8.294;2023-11-21T00:10:12;9.40;99.90
563;DHT22;266;49.514;8.294;2023-11-21T00:12:41;9.50;99.90
563;DHT22;266;49.514;8.294;2023-11-21T00:15:10;9.50;99.90
563;DHT22;266;49.514;8.294;2023-11-21T00:17:38;9.50;99.90
563;DHT22;266;49.514;8.294;2023-11-21T00:20:09;9.50;99.90
563;DHT22;266;49.514;8.294;2023-11-21T00:22:39;9.50;99.90
563;DHT22;266;49.514;8.294;2023-11-21T00:25:08;9.50;99.90
563;DHT22;266;49.514;8.294;2023-11-21T00:27:37;9.50;99.90
563;DHT22;266;49.514;8.294;2023-11-21T00:30:06;9.50;99.90
563;DHT22;266;49.514;8.294;2023-11-21T00:32:35;9.50;99.90
563;DHT22;266;49.514;8.294;2023-11-21T00:35:04;9.50;99.90
563;DHT22;266;49.514;8.294;2023-11-21T00:37:34;9.50;99.90
563;DHT22;266;49.514;8.294;2023-11-21T00:40:02;9.50;99.90
563;DHT22;266;49.514;8.294;2023-11-21T00:42:33;9.50;99.90
563;DHT22;266;49.514;8.294;2023-11-21T00:45:01;9.40;99.90
563;DHT22;266;49.514;8.294;2023-11-21T00:47:30;9.40;99.90
563;DHT22;266;49.514;8.294;2023-11-21T00:49:58;9.40;99.90
563;DHT22;266;49.514;8.294;2023-11-21T00:52:26;9.40;99.90
563;DHT22;266;49.514;8.294;2023-11-21T00:54:55;9.40;99.90
563;DHT22;266;49.514;8.294;2023-11-21T00:57:27;9.40;99.90
563;DHT22;266;49.514;8.294;2023-11-21T00:59:55;9.30;99.90
563;DHT22;266;49.514;8.294;2023-11-21T01:02:23;9.30;99.90
563;DHT22;266;49.514;8.294;2023-11-21T01:04:52;9.30;99.90
563;DHT22;266;49.514;8.294;2023-11-21T01:07:20;9.30;99.90
563;DHT22;266;49.514;8.294;2023-11-21T01:09:49;9.30;99.90
563;DHT22;266;49.514;8.294;2023-11-21T01:12:18;9.30;99.90
563;DHT22;266;49.514;8.294;2023-11-21T01:14:46;9.30;99.90
563;DHT22;266;49.514;8.294;2023-11-21T01:17:14;9.30;99.90
563;DHT22;266;49.514;8.294;2023-11-21T01:19:43;9.30;99.90
563;DHT22;266;49.514;8.294;2023-11-21T01:22:11;9.30;99.90
563;DHT22;266;49.514;8.294;2023-11-21T01:24:39;9.30;99.90
563;DHT22;266;49.514;8.294;2023-11-21T01:27:09;9.30;99.90
563;DHT22;266;49.514;8.294;2023-11-21T01:29:38;9.30;99.90
563;DHT22;266;49.514;8.294;2023-11-21T01:32:06;9.30;99.90
563;DHT22;266;49.514;8.294;2023-11-21T01:34:35;9.30;99.90
563;DHT22;266;49.514;8.294;2023-11-21T01:37:03;9.30;99.90
563;DHT22;266;49.514;8.294;2023-11-21T01:39:32;9.30;99.90
563;DHT22;266;49.514;8.294;2023-11-21T01:42:00;9.30;99.90
563;DHT22;266;49.514;8.294;2023-11-21T01:44:27;9.30;99.90
563;DHT22;266;49.514;8.294;2023-11-21T01:46:57;9.30;99.90
563;DHT22;266;49.514;8.294;2023-11-21T01:49:25;9.30;99.90
563;DHT22;266;49.514;8.294;2023-11-21T01:51:53;9.30;99.90
563;DHT22;266;49.514;8.294;2023-11-21T01:54:22;9.30;99.90
563;DHT22;266;49.514;8.294;2023-11-21T01:56:50;9.40;99.90
563;DHT22;266;49.514;8.294;2023-11-21T01:59:20;9.30;99.90
563;DHT22;266;49.514;8.294;2023-11-21T02:01:49;9.40;99.90
563;DHT22;266;49.514;8.294;2023-11-21T02:04:19;9.30;99.90
563;DHT22;266;49.514;8.294;2023-11-21T02:06:48;9.30;99.90
563;DHT22;266;49.514;8.294;2023-11-21T02:09:17;9.30;99.90
563;DHT22;266;49.514;8.294;2023-11-21T02:11:50;9.30;99.90
563;DHT22;266;49.514;8.294;2023-11-21T02:14:20;9.40;99.90
563;DHT22;266;49.514;8.294;2023-11-21T02:16:50;9.40;99.90
563;DHT22;266;49.514;8.294;2023-11-21T02:19:21;9.30;99.90
563;DHT22;266;49.514;8.294;2023-11-21T02:21:52;9.30;99.90
563;DHT22;266;49.514;8.294;2023-11-21T02:24:22;9.30;99.90
563;DHT22;266;49.514;8.294;2023-11-21T02:26:50;9.30;99.90
563;DHT22;266;49.514;8.294;2023-11-21T02:29:19;9.30;99.90
563;DHT22;266;49.514;8.294;2023-11-21T02:31:52;9.30;99.90
563;DHT22;266;49.514;8.294;2023-11-21T02:34:23;9.20;99.90
563;DHT22;266;49.514;8.294;2023-11-21T02:36:52;9.30;99.90
563;DHT22;266;49.514;8.294;2023-11-21T02:39:22;9.30;99.90
563;DHT22;266;49.514;8.294;2023-11-21T02:41:51;9.30;99.90
563;DHT22;266;49.514;8.294;2023-11-21T02:44:19;9.30;99.90
563;DHT22;266;49.514;8.294;2023-11-21T02:46:47;9.20;99.90
563;DHT22;266;49.514;8.294;2023-11-21T02:49:15;9.30;99.90
563;DHT22;266;49.514;8.294;2023-11-21T02:51:43;9.30;99.90
563;DHT22;266;49.514;8.294;2023-11-21T02:54:12;9.40;99.90
563;DHT22;266;49.514;8.294;2023-11-21T02:56:43;9.40;99.90
563;DHT22;266;49.514;8.294;2023-11-21T02:59:12;9.30;99.90
563;DHT22;266;49.514;8.294;2023-11-21T03:01:40;9.30;99.90
563;DHT22;266;49.514;8.294;2023-11-21T03:04:08;9.30;99.90
563;DHT22;266;49.514;8.294;2023-11-21T03:06:36;9.30;99.90
563;DHT22;266;49.514;8.294;2023-11-21T03:09:04;9.30;99.90
563;DHT22;266;49.514;8.294;2023-11-21T03:11:33;9.40;99.90
563;DHT22;266;49.514;8.294;2023-11-21T03:14:02;9.40;99.90
563;DHT22;266;49.514;8.294;2023-11-21T03:16:31;9.40;99.90
563;DHT22;266;49.514;8.294;2023-11-21T03:18:59;9.40;99.90
563;DHT22;266;49.514;8.294;2023-11-21T03:21:27;9.40;99.90
563;DHT22;266;49.514;8.294;2023-11-21T03:23:55;9.40;99.90
563;DHT22;266;49.514;8.294;2023-11-21T03:26:23;9.30;99.90
563;DHT22;266;49.514;8.294;2023-11-21T03:28:51;9.40;99.90
563;DHT22;266;49.514;8.294;2023-11-21T03:31:21;9.40;99.90
563;DHT22;266;49.514;8.294;2023-11-21T03:33:49;9.40;99.90
563;DHT22;266;49.514;8.294;2023-11-21T03:36:19;9.40;99.90
563;DHT22;266;49.514;8.294;2023-11-21T03:38:48;9.40;99.90
563;DHT22;266;49.514;8.294;2023-11-21T03:41:16;9.30;99.90
563;DHT22;266;49.514;8.294;2023-11-21T03:43:44;9.30;99.90
563;DHT22;266;49.514;8.294;2023-11-21T03:46:12;9.30;99.90
563;DHT22;266;49.514;8.294;2023-11-21T03:48:41;9.30;99.90
563;DHT22;266;49.514;8.294;2023-11-21T03:51:09;9.30;99.90
563;DHT22;266;49.514;8.294;2023-11-21T03:53:37;9.30;99.90
563;DHT22;266;49.514;8.294;2023-11-21T03:56:06;9.40;99.90
563;DHT22;266;49.514;8.294;2023-11-21T03:58:34;9.40;99.90
563;DHT22;266;49.514;8.294;2023-11-21T04:01:05;9.40;99.90
563;DHT22;266;49.514;8.294;2023-11-21T04:03:33;9.30;99.90
563;DHT22;266;49.514;8.294;2023-11-21T04:06:03;9.40;99.90
563;DHT22;266;49.514;8.294;2023-11-21T04:08:33;9.30;99.90
563;DHT22;266;49.514;8.294;2023-11-21T04:11:01;9.30;99.90
563;DHT22;266;49.514;8.294;2023-11-21T04:13:29;9.30;99.90
563;DHT22;266;49.514;8.294;2023-11-21T04:15:58;9.30;99.90
563;DHT22;266;49.514;8.294;2023-11-21T04:18:25;9.30;99.90
563;DHT22;266;49.514;8.294;2023-11-21T04:20:53;9.30;99.90
563;DHT22;266;49.514;8.294;2023-11-21T04:23:23;9.30;99.90
563;DHT22;266;49.514;8.294;2023-11-21T04:25:51;9.30;99.90
563;DHT22;266;49.514;8.294;2023-11-21T04:28:21;9.30;99.90
563;DHT22;266;49.514;8.294;2023-11-21T04:30:49;9.30;99.90
563;DHT22;266;49.514;8.294;2023-11-21T04:33:17;9.30;99.90
563;DHT22;266;49.514;8.294;2023-11-21T04:35:45;9.30;99.90
563;DHT22;266;49.514;8.294;2023-11-21T04:38:13;9.30;99.90
563;DHT22;266;49.514;8.294;2023-11-21T04:40:43;9.30;99.90
563;DHT22;266;49.514;8.294;2023-11-21T04:43:11;9.30;99.90
563;DHT22;266;49.514;8.294;2023-11-21T04:45:42;9.30;99.90
563;DHT22;266;49.514;8.294;2023-11-21T04:48:10;9.30;99.90
563;DHT22;266;49.514;8.294;2023-11-21T04:50:38;9.30;99.90
563;DHT22;266;49.514;8.294;2023-11-21T04:53:06;9.30;99.90
563;DHT22;266;49.514;8.294;2023-11-21T04:55:34;9.30;99.90
563;DHT22;266;49.514;8.294;2023-11-21T04:58:03;9.40;99.90
563;DHT22;266;49.514;8.294;2023-11-21T05:00:32;9.30;99.90
563;DHT22;266;49.514;8.294;2023-11-21T05:03:00;9.30;99.90
563;DHT22;266;49.514;8.294;2023-11-21T05:05:29;9.40;99.90
563;DHT22;266;49.514;8.294;2023-11-21T05:07:57;9.40;99.90
563;DHT22;266;49.514;8.294;2023-11-21T05:10:25;9.40;99.90
563;DHT22;266;49.514;8.294;2023-11-21T05:12:53;9.40;99.90
563;DHT22;266;49.514;8.294;2023-11-21T05:15:23;9.30;99.90
563;DHT22;266;49.514;8.294;2023-11-21T05:17:51;9.30;99.90
563;DHT22;266;49.514;8.294;2023-11-21T05:20:20;9.30;99.90
563;DHT22;266;49.514;8.294;2023-11-21T05:22:48;9.30;99.90
563;DHT22;266;49.514;8.294;2023-11-21T05:25:17;9.30;99.90
563;DHT22;266;49.514;8.294;2023-11-21T05:27:45;9.20;99.90
563;DHT22;266;49.514;8.294;2023-11-21T05:30:14;9.30;99.90
563;DHT22;266;49.514;8.294;2023-11-21T05:32:43;9.20;99.90
563;DHT22;266;49.514;8.294;2023-11-21T05:35:13;9.20;99.90
563;DHT22;266;49.514;8.294;2023-11-21T05:37:43;9.30;99.90
563;DHT22;266;49.514;8.294;2023-11-21T05:40:13;9.20;99.90
563;DHT22;266;49.514;8.294;2023-11-21T05:42:41;9.20;99.90
563;DHT22;266;49.514;8.294;2023-11-21T05:45:09;9.20;99.90
563;DHT22;266;49.514;8.294;2023-11-21T05:47:40;9.20;99.90
563;DHT22;266;49.514;8.294;2023-11-21T05:50:11;9.20;99.90
563;DHT22;266;49.514;8.294;2023-11-21T05:52:42;9.20;99.90
563;DHT22;266;49.514;8.294;2023-11-21T05:55:10;9.10;99.90
563;DHT22;266;49.514;8.294;2023-11-21T05:57:41;9.10;99.90
563;DHT22;266;49.514;8.294;2023-11-21T06:00:11;9.10;99.90
563;DHT22;266;49.514;8.294;2023-11-21T06:02:48;9.10;99.90
563;DHT22;266;49.514;8.294;2023-11-21T06:05:23;9.10;99.90
563;DHT22;266;49.514;8.294;2023-11-21T06:07:52;9.10;99.90
563;DHT22;266;49.514;8.294;2023-11-21T06:10:21;9.10;99.90
563;DHT22;266;49.514;8.294;2023-11-21T06:12:52;9.10;99.90
563;DHT22;266;49.514;8.294;2023-11-21T06:15:20;9.10;99.90
563;DHT22;266;49.514;8.294;2023-11-21T06:17:50;9.10;99.90
563;DHT22;266;49.514;8.294;2023-11-21T06:20:21;9.00;99.90
563;DHT22;266;49.514;8.294;2023-11-21T06:22:50;9.10;99.90
563;DHT22;266;49.514;8.294;2023-11-21T06:25:19;9.00;99.90
563;DHT22;266;49.514;8.294;2023-11-21T06:27:48;9.10;99.90
563;DHT22;266;49.514;8.294;2023-11-21T06:30:16;9.10;99.90
563;DHT22;266;49.514;8.294;2023-11-21T06:32:46;9.00;99.90
563;DHT22;266;49.514;8.294;2023-11-21T06:35:15;9.00;99.90
563;DHT22;266;49.514;8.294;2023-11-21T06:37:45;9.10;99.90
563;DHT22;266;49.514;8.294;2023-11-21T06:40:16;9.10;99.90
563;DHT22;266;49.514;8.294;2023-11-21T06:42:45;9.10;99.90
563;DHT22;266;49.514;8.294;2023-11-21T06:45:13;9.10;99.90
563;DHT22;266;49.514;8.294;2023-11-21T06:47:42;9.10;99.90
563;DHT22;266;49.514;8.294;2023-11-21T06:50:11;9.10;99.90
563;DHT22;266;49.514;8.294;2023-11-21T06:52:39;9.10;99.90
563;DHT22;266;49.514;8.294;2023-11-21T06:55:09;9.10;99.90
563;DHT22;266;49.514;8.294;2023-11-21T06:57:37;9.10;99.90
563;DHT22;266;49.514;8.294;2023-11-21T07:00:06;9.10;99.90
563;DHT22;266;49.514;8.294;2023-11-21T07:02:36;9.10;99.90
563;DHT22;266;49.514;8.294;2023-11-21T07:05:06;9.10;99.90
563;DHT22;266;49.514;8.294;2023-11-21T07:07:33;9.10;99.90
563;DHT22;266;49.514;8.294;2023-11-21T07:10:04;9.10;99.90
563;DHT22;266;49.514;8.294;2023-11-21T07:12:34;9.10;99.90
563;DHT22;266;49.514;8.294;2023-11-21T07:15:02;9.10;99.90
563;DHT22;266;49.514;8.294;2023-11-21T07:17:32;9.10;99.90
563;DHT22;266;49.514;8.294;2023-11-21T07:20:01;9.10;99.90
563;DHT22;266;49.514;8.294;2023-11-21T07:22:30;9.10;99.90
563;DHT22;266;49.514;8.294;2023-11-21T07:24:58;9.10;99.90
563;DHT22;266;49.514;8.294;2023-11-21T07:27:27;9.10;99.90
563;DHT22;266;49.514;8.294;2023-11-21T07:29:57;9.10;99.90
563;DHT22;266;49.514;8.294;2023-11-21T07:32:25;9.20;99.90
563;DHT22;266;49.514;8.294;2023-11-21T07:34:53;9.10;99.90
563;DHT22;266;49.514;8.294;2023-11-21T07:37:24;9.20;99.90
563;DHT22;266;49.514;8.294;2023-11-21T07:39:55;9.20;99.90
563;DHT22;266;49.514;8.294;2023-11-21T07:42:24;9.20;99.90
563;DHT22;266;49.514;8.294;2023-11-21T07:44:54;9.20;99.90
563;DHT22;266;49.514;8.294;2023-11-21T07:47:23;9.20;99.90
563;DHT22;266;49.514;8.294;2023-11-21T07:49:54;9.20;99.90
563;DHT22;266;49.514;8.294;2023-11-21T07:52:23;9.20;99.90
563;DHT22;266;49.514;8.294;2023-11-21T07:54:51;9.20;99.90
563;DHT22;266;49.514;8.294;2023-11-21T07:57:19;9.20;99.90
563;DHT22;266;49.514;8.294;2023-11-21T07:59:47;9.20;99.90
563;DHT22;266;49.514;8.294;2023-11-21T08:02:16;9.20;99.90
563;DHT22;266;49.514;8.294;2023-11-21T08:04:47;9.30;99.90
563;DHT22;266;49.514;8.294;2023-11-21T08:07:16;9.30;99.90
563;DHT22;266;49.514;8.294;2023-11-21T08:09:44;9.30;99.90
563;DHT22;266;49.514;8.294;2023-11-21T08:12:14;9.30;99.90
563;DHT22;266;49.514;8.294;2023-11-21T08:14:42;9.30;99.90
563;DHT22;266;49.514;8.294;2023-11-21T08:17:11;9.30;99.90
563;DHT22;266;49.514;8.294;2023-11-21T08:19:40;9.30;99.90
563;DHT22;266;49.514;8.294;2023-11-21T08:22:10;9.30;99.90
563;DHT22;266;49.514;8.294;2023-11-21T08:24:38;9.30;99.90
563;DHT22;266;49.514;8.294;2023-11-21T08:27:06;9.30;99.90
563;DHT22;266;49.514;8.294;2023-11-21T08:29:34;9.30;99.90
563;DHT22;266;49.514;8.294;2023-11-21T08:32:03;9.30;99.90
563;DHT22;266;49.514;8.294;2023-11-21T08:34:32;9.30;99.90
563;DHT22;266;49.514;8.294;2023-11-21T08:37:01;9.40;99.90
563;DHT22;266;49.514;8.294;2023-11-21T08:39:30;9.30;99.90
563;DHT22;266;49.514;8.294;2023-11-21T08:41:58;9.30;99.90
563;DHT22;266;49.514;8.294;2023-11-21T08:44:26;9.20;99.90
563;DHT22;266;49.514;8.294;2023-11-21T08:46:54;9.20;99.90
563;DHT22;266;49.514;8.294;2023-11-21T08:49:22;9.20;99.90
563;DHT22;266;49.514;8.294;2023-11-21T08:51:50;9.20;99.90
563;DHT22;266;49.514;8.294;2023-11-21T08:54:18;9.20;99.90
563;DHT22;266;49.514;8.294;2023-11-21T08:56:48;9.20;99.90
563;DHT22;266;49.514;8.294;2023-11-21T08:59:17;9.20;99.90
563;DHT22;266;49.514;8.294;2023-11-21T09:01:46;9.20;99.90
563;DHT22;266;49.514;8.294;2023-11-21T09:04:15;9.20;99.90
563;DHT22;266;49.514;8.294;2023-11-21T09:06:43;9.20;99.90
563;DHT22;266;49.514;8.294;2023-11-21T09:09:11;9.20;99.90
563;DHT22;266;49.514;8.294;2023-11-21T09:11:39;9.20;99.90
563;DHT22;266;49.514;8.294;2023-11-21T09:14:08;9.20;99.90
563;DHT22;266;49.514;8.294;2023-11-21T09:16:37;9.20;99.90
563;DHT22;266;49.514;8.294;2023-11-21T09:19:05;9.30;99.90
563;DHT22;266;49.514;8.294;2023-11-21T09:21:33;9.30;99.90
563;DHT22;266;49.514;8.294;2023-11-21T09:24:01;9.30;99.90
563;DHT22;266;49.514;8.294;2023-11-21T09:26:29;9.30;99.90
563;DHT22;266;49.514;8.294;2023-11-21T09:28:57;9.30;99.90
563;DHT22;266;49.514;8.294;2023-11-21T09:31:27;9.30;99.90
563;DHT22;266;49.514;8.294;2023-11-21T09:33:55;9.40;99.90
563;DHT22;266;49.514;8.294;2023-11-21T09:36:24;9.40;99.90
563;DHT22;266;49.514;8.294;2023-11-21T09:38:54;9.50;99.90
563;DHT22;266;49.514;8.294;2023-11-21T09:41:29;9.50;99.90
563;DHT22;266;49.514;8.294;2023-11-21T09:44:03;9.50;99.90
563;DHT22;266;49.514;8.294;2023-11-21T09:46:35;9.50;99.90
563;DHT22;266;49.514;8.294;2023-11-21T09:49:09;9.50;99.90
563;DHT22;266;49.514;8.294;2023-11-21T09:51:39;9.60;99.90
563;DHT22;266;49.514;8.294;2023-11-21T09:54:10;9.60;99.90
563;DHT22;266;49.514;8.294;2023-11-21T09:56:38;9.60;99.90
563;DHT22;266;49.514;8.294;2023-11-21T09:59:06;9.60;99.90
563;DHT22;266;49.514;8.294;2023-11-21T10:01:38;9.60;99.90
563;DHT22;266;49.514;8.294;2023-11-21T10:04:08;9.60;99.90
563;DHT22;266;49.514;8.294;2023-11-21T10:06:39;9.60;99.90
563;DHT22;266;49.514;8.294;2023-11-21T10:09:10;9.50;99.90
563;DHT22;266;49.514;8.294;2023-11-21T10:11:41;9.50;99.90
563;DHT22;266;49.514;8.294;2023-11-21T10:14:11;9.40;99.90
563;DHT22;266;49.514;8.294;2023-11-21T10:16:43;9.40;99.90
563;DHT22;266;49.514;8.294;2023-11-21T10:19:14;9.50;99.90
563;DHT22;266;49.514;8.294;2023-11-21T10:21:43;9.40;99.90
563;DHT22;266;49.514;8.294;2023-11-21T10:24:11;9.40;99.90
563;DHT22;266;49.514;8.294;2023-11-21T10:26:39;9.40;99.90
563;DHT22;266;49.514;8.294;2023-11-21T10:29:19;9.50;99.90
563;DHT22;266;49.514;8.294;2023-11-21T10:31:51;9.50;99.90
563;DHT22;266;49.514;8.294;2023-11-21T10:34:22;9.50;99.90
563;DHT22;266;49.514;8.294;2023-11-21T10:36:50;9.50;99.90
563;DHT22;266;49.514;8.294;2023-11-21T10:39:19;9.50;99.90
563;DHT22;266;49.514;8.294;2023-11-21T10:41:50;9.40;99.90
563;DHT22;266;49.514;8.294;2023-11-21T10:44:18;9.50;99.90
563;DHT22;266;49.514;8.294;2023-11-21T10:46:51;9.50;99.90
563;DHT22;266;49.514;8.294;2023-11-21T10:49:23;9.50;99.90
563;DHT22;266;49.514;8.294;2023-11-21T10:51:53;9.50;99.90
563;DHT22;266;49.514;8.294;2023-11-21T10:54:23;9.50;99.90
563;DHT22;266;49.514;8.294;2023-11-21T10:56:56;9.60;99.90
563;DHT22;266;49.514;8.294;2023-11-21T10:59:25;9.60;99.90
563;DHT22;266;49.514;8.294;2023-11-21T11:01:58;9.60;99.90
563;DHT22;266;49.514;8.294;2023-11-21T11:04:27;9.70;99.90
563;DHT22;266;49.514;8.294;2023-11-21T11:06:58;9.70;99.90
563;DHT22;266;49.514;8.294;2023-11-21T11:09:32;9.80;99.90
563;DHT22;266;49.514;8.294;2023-11-21T11:12:02;9.80;99.90
563;DHT22;266;49.514;8.294;2023-11-21T11:14:32;9.80;99.90
563;DHT22;266;49.514;8.294;2023-11-21T11:17:03;9.90;99.90
563;DHT22;266;49.514;8.294;2023-11-21T11:19:33;9.90;99.90
563;DHT22;266;49.514;8.294;2023-11-21T11:22:12;10.00;99.90
563;DHT22;266;49.514;8.294;2023-11-21T11:25:03;10.10;99.90
563;DHT22;266;49.514;8.294;2023-11-21T11:27:48;10.20;99.90
563;DHT22;266;49.514;8.294;2023-11-21T11:30:27;10.20;99.90
563;DHT22;266;49.514;8.294;2023-11-21T11:33:10;10.30;99.90
563;DHT22;266;49.514;8.294;2023-11-21T11:35:49;10.40;99.90
563;DHT22;266;49.514;8.294;2023-11-21T11:38:21;10.40;99.90
563;DHT22;266;49.514;8.294;2023-11-21T11:40:53;10.40;99.90
563;DHT22;266;49.514;8.294;2023-11-21T11:43:27;10.50;99.90
563;DHT22;266;49.514;8.294;2023-11-21T11:45:56;10.60;99.90
563;DHT22;266;49.514;8.294;2023-11-21T11:48:27;10.70;99.90
563;DHT22;266;49.514;8.294;2023-11-21T11:51:02;10.70;99.90
563;DHT22;266;49.514;8.294;2023-11-21T11:53:36;10.80;99.90
563;DHT22;266;49.514;8.294;2023-11-21T11:56:31;10.80;99.90
563;DHT22;266;49.514;8.294;2023-11-21T11:59:03;10.90;99.90
563;DHT22;266;49.514;8.294;2023-11-21T12:01:32;10.90;99.90
563;DHT22;266;49.514;8.294;2023-11-21T12:04:24;10.90;99.90
563;DHT22;266;49.514;8.294;2023-11-21T12:07:02;10.90;99.90
563;DHT22;266;49.514;8.294;2023-11-21T12:09:33;11.00;99.90
563;DHT22;266;49.514;8.294;2023-11-21T12:12:02;11.10;99.90
563;DHT22;266;49.514;8.294;2023-11-21T12:14:31;11.20;99.90
563;DHT22;266;49.514;8.294;2023-11-21T12:16:59;11.30;99.90
563;DHT22;266;49.514;8.294;2023-11-21T12:19:30;11.30;99.90
563;DHT22;266;49.514;8.294;2023-11-21T12:21:59;11.40;99.90
563;DHT22;266;49.514;8.294;2023-11-21T12:24:27;11.30;99.90
563;DHT22;266;49.514;8.294;2023-11-21T12:26:56;11.40;99.90
563;DHT22;266;49.514;8.294;2023-11-21T12:29:29;11.50;99.90
563;DHT22;266;49.514;8.294;2023-11-21T12:32:01;11.60;99.90
563;DHT22;266;49.514;8.294;2023-11-21T12:34:31;11.80;99.90
563;DHT22;266;49.514;8.294;2023-11-21T12:37:05;11.90;99.90
563;DHT22;266;49.514;8.294;2023-11-21T12:39:33;11.80;99.90
563;DHT22;266;49.514;8.294;2023-11-21T12:42:02;11.80;99.90
563;DHT22;266;49.514;8.294;2023-11-21T12:44:30;11.80;99.90
563;DHT22;266;49.514;8.294;2023-11-21T12:46:58;11.70;99.90
563;DHT22;266;49.514;8.294;2023-11-21T12:49:28;11.70;99.90
563;DHT22;266;49.514;8.294;2023-11-21T12:51:57;11.60;99.90
563;DHT22;266;49.514;8.294;2023-11-21T12:54:25;11.70;99.90
563;DHT22;266;49.514;8.294;2023-11-21T12:56:53;11.80;99.90
563;DHT22;266;49.514;8.294;2023-11-21T12:59:21;11.90;99.90
563;DHT22;266;49.514;8.294;2023-11-21T13:01:49;11.90;99.90
563;DHT22;266;49.514;8.294;2023-11-21T13:04:18;11.90;99.90
563;DHT22;266;49.514;8.294;2023-11-21T13:06:46;12.00;99.90
563;DHT22;266;49.514;8.294;2023-11-21T13:09:15;12.20;99.90
563;DHT22;266;49.514;8.294;2023-11-21T13:11:48;12.10;99.90
563;DHT22;266;49.514;8.294;2023-11-21T13:14:16;12.10;99.90
563;DHT22;266;49.514;8.294;2023-11-21T13:16:45;12.00;99.90
563;DHT22;266;49.514;8.294;2023-11-21T13:19:13;12.00;99.90
563;DHT22;266;49.514;8.294;2023-11-21T13:21:41;12.00;99.90
563;DHT22;266;49.514;8.294;2023-11-21T13:24:10;11.90;99.90
563;DHT22;266;49.514;8.294;2023-11-21T13:26:40;11.80;99.90
563;DHT22;266;49.514;8.294;2023-11-21T13:29:08;11.70;99.90
563;DHT22;266;49.514;8.294;2023-11-21T13:31:39;11.70;99.90
563;DHT22;266;49.514;8.294;2023-11-21T13:34:08;11.70;99.90
563;DHT22;266;49.514;8.294;2023-11-21T13:36:36;11.70;99.90
563;DHT22;266;49.514;8.294;2023-11-21T13:39:04;11.60;99.90
563;DHT22;266;49.514;8.294;2023-11-21T13:41:35;11.50;99.90
563;DHT22;266;49.514;8.294;2023-11-21T13:44:07;11.50;99.90
563;DHT22;266;49.514;8.294;2023-11-21T13:46:43;11.60;99.90
563;DHT22;266;49.514;8.294;2023-11-21T13:49:12;11.60;99.90
563;DHT22;266;49.514;8.294;2023-11-21T13:51:42;11.70;99.90
563;DHT22;266;49.514;8.294;2023-11-21T13:54:12;11.80;99.90
563;DHT22;266;49.514;8.294;2023-11-21T13:56:41;11.80;99.90
563;DHT22;266;49.514;8.294;2023-11-21T13:59:13;11.80;99.90
563;DHT22;266;49.514;8.294;2023-11-21T14:01:47;11.70;99.90
563;DHT22;266;49.514;8.294;2023-11-21T14:04:24;11.70;99.90
563;DHT22;266;49.514;8.294;2023-11-21T14:07:25;11.80;99.90
563;DHT22;266;49.514;8.294;2023-11-21T14:09:59;11.70;99.90
563;DHT22;266;49.514;8.294;2023-11-21T14:12:27;11.60;99.90
563;DHT22;266;49.514;8.294;2023-11-21T14:14:58;11.50;99.90
563;DHT22;266;49.514;8.294;2023-11-21T14:17:26;11.50;99.90
563;DHT22;266;49.514;8.294;2023-11-21T14:19:57;11.40;99.90
563;DHT22;266;49.514;8.294;2023-11-21T14:22:25;11.40;99.90
563;DHT22;266;49.514;8.294;2023-11-21T14:24:53;11.40;99.90
563;DHT22;266;49.514;8.294;2023-11-21T14:27:25;11.40;99.90
563;DHT22;266;49.514;8.294;2023-11-21T14:29:53;11.30;99.90
563;DHT22;266;49.514;8.294;2023-11-21T14:32:25;11.30;99.90
563;DHT22;266;49.514;8.294;2023-11-21T14:34:53;11.20;99.90
563;DHT22;266;49.514;8.294;2023-11-21T14:37:22;11.20;99.90
563;DHT22;266;49.514;8.294;2023-11-21T14:39:51;11.20;99.90
563;DHT22;266;49.514;8.294;2023-11-21T14:42:19;11.20;99.90
563;DHT22;266;49.514;8.294;2023-11-21T14:44:51;11.10;99.90
563;DHT22;266;49.514;8.294;2023-11-21T14:47:21;11.10;99.90
563;DHT22;266;49.514;8.294;2023-11-21T14:49:55;11.00;99.90
563;DHT22;266;49.514;8.294;2023-11-21T14:52:26;11.00;99.90
563;DHT22;266;49.514;8.294;2023-11-21T15:02:16;10.70;99.90
563;DHT22;266;49.514;8.294;2023-11-21T15:04:46;10.70;99.90
563;DHT22;266;49.514;8.294;2023-11-21T15:07:15;10.60;99.90
563;DHT22;266;49.514;8.294;2023-11-21T15:09:43;10.50;99.90
563;DHT22;266;49.514;8.294;2023-11-21T15:12:12;10.50;99.90
563;DHT22;266;49.514;8.294;2023-11-21T15:14:44;10.50;99.90
563;DHT22;266;49.514;8.294;2023-11-21T15:17:15;10.40;99.90
563;DHT22;266;49.514;8.294;2023-11-21T15:19:50;10.40;99.90
563;DHT22;266;49.514;8.294;2023-11-21T15:22:19;10.50;99.90
563;DHT22;266;49.514;8.294;2023-11-21T15:24:48;10.40;99.90
563;DHT22;266;49.514;8.294;2023-11-21T15:27:17;10.40;99.90
563;DHT22;266;49.514;8.294;2023-11-21T15:29:45;10.30;99.90
563;DHT22;266;49.514;8.294;2023-11-21T15:32:13;10.30;99.90
563;DHT22;266;49.514;8.294;2023-11-21T15:34:41;10.30;99.90
563;DHT22;266;49.514;8.294;2023-11-21T15:37:09;10.30;99.90
563;DHT22;266;49.514;8.294;2023-11-21T15:39:40;10.30;99.90
563;DHT22;266;49.514;8.294;2023-11-21T15:42:09;10.20;99.90
563;DHT22;266;49.514;8.294;2023-11-21T15:44:37;10.20;99.90
563;DHT22;266;49.514;8.294;2023-11-21T15:47:06;10.20;99.90
563;DHT22;266;49.514;8.294;2023-11-21T15:49:36;10.20;99.90
563;DHT22;266;49.514;8.294;2023-11-21T15:52:05;10.20;99.90
563;DHT22;266;49.514;8.294;2023-11-21T15:54:39;10.10;99.90
563;DHT22;266;49.514;8.294;2023-11-21T15:57:07;10.10;99.90
563;DHT22;266;49.514;8.294;2023-11-21T15:59:39;10.20;99.90
563;DHT22;266;49.514;8.294;2023-11-21T16:02:09;10.10;99.90
563;DHT22;266;49.514;8.294;2023-11-21T16:04:39;10.10;99.90
563;DHT22;266;49.514;8.294;2023-11-21T16:07:08;10.10;99.90
563;DHT22;266;49.514;8.294;2023-11-21T16:09:37;10.00;99.90
563;DHT22;266;49.514;8.294;2023-11-21T16:12:09;10.00;99.90
563;DHT22;266;49.514;8.294;2023-11-21T16:14:39;10.00;99.90
563;DHT22;266;49.514;8.294;2023-11-21T16:17:09;10.00;99.90
563;DHT22;266;49.514;8.294;2023-11-21T16:19:38;10.00;99.90
563;DHT22;266;49.514;8.294;2023-11-21T16:22:06;10.00;99.90
563;DHT22;266;49.514;8.294;2023-11-21T16:24:34;9.90;99.90
563;DHT22;266;49.514;8.294;2023-11-21T16:27:04;9.90;99.90
563;DHT22;266;49.514;8.294;2023-11-21T16:29:34;9.90;99.90
563;DHT22;266;49.514;8.294;2023-11-21T16:32:02;9.90;99.90
563;DHT22;266;49.514;8.294;2023-11-21T16:34:30;9.90;99.90
563;DHT22;266;49.514;8.294;2023-11-21T16:36:58;9.90;99.90
563;DHT22;266;49.514;8.294;2023-11-21T16:39:26;9.90;99.90
563;DHT22;266;49.514;8.294;2023-11-21T16:41:54;9.90;99.90
563;DHT22;266;49.514;8.294;2023-11-21T16:44:22;9.90;99.90
563;DHT22;266;49.514;8.294;2023-11-21T16:46:52;9.80;99.90
563;DHT22;266;49.514;8.294;2023-11-21T16:49:23;9.80;99.90
563;DHT22;266;49.514;8.294;2023-11-21T16:51:54;9.80;99.90
563;DHT22;266;49.514;8.294;2023-11-21T16:54:22;9.80;99.90
563;DHT22;266;49.514;8.294;2023-11-21T16:56:50;9.80;99.90
563;DHT22;266;49.514;8.294;2023-11-21T16:59:18;9.80;99.90
563;DHT22;266;49.514;8.294;2023-11-21T17:01:47;9.80;99.90
563;DHT22;266;49.514;8.294;2023-11-21T17:04:16;9.80;99.90
563;DHT22;266;49.514;8.294;2023-11-21T17:06:45;9.80;99.90
563;DHT22;266;49.514;8.294;2023-11-21T17:09:14;9.80;99.90